Time;durP1;ratioP1;P1;durP2;ratioP2;P2;SDS_P1;SDS_P2;PMS_P1;PMS_P2;Temp;Humidity;BMP_temperature;BMP_pressure;BME280_temperature;BME280_humidity;BME280_pressure;Samples;Min_cycle;Max_cycle;Signal;HPM_P1;HPM_P2
2022/03/26 00:00:10;;;;;;;34.17;25.20;;;10.90;75.60;;;;;;5054675;28;20958;-67
2022/03/26 00:02:36;;;;;;;36.10;26.70;;;10.70;75.70;;;;;;5054233;28;20417;-66
2022/03/26 00:05:03;;;;;;;34.37;24.37;;;10.70;76.00;;;;;;5054960;28;20774;-66
2022/03/26 00:07:28;;;;;;;34.40;25.40;;;10.70;76.10;;;;;;5054129;28;20185;-67
2022/03/26 00:09:54;;;;;;;38.67;25.23;;;10.70;76.20;;;;;;5054629;28;20516;-66
2022/03/26 00:12:20;;;;;;;39.33;26.00;;;10.70;76.20;;;;;;5054461;28;20172;-67
2022/03/26 00:14:46;;;;;;;35.47;24.87;;;10.60;76.50;;;;;;5054021;28;20419;-67
2022/03/26 00:17:12;;;;;;;34.60;24.97;;;10.60;77.20;;;;;;5054317;28;20304;-67
2022/03/26 00:19:38;;;;;;;34.03;25.57;;;10.60;77.30;;;;;;5053809;28;20419;-67
2022/03/26 00:22:04;;;;;;;36.33;25.03;;;10.60;77.70;;;;;;5054393;28;20403;-66
2022/03/26 00:24:30;;;;;;;34.40;25.33;;;10.60;77.60;;;;;;5053857;28;20571;-67
2022/03/26 00:26:55;;;;;;;37.63;26.03;;;10.60;78.30;;;;;;5054417;28;20478;-67
2022/03/26 00:29:21;;;;;;;36.97;25.43;;;10.50;78.40;;;;;;5054583;28;20180;-67
2022/03/26 00:31:47;;;;;;;40.30;25.60;;;10.40;78.00;;;;;;5053691;28;20589;-67
2022/03/26 00:34:13;;;;;;;35.07;24.50;;;10.40;77.70;;;;;;5054176;28;20186;-66
2022/03/26 00:36:40;;;;;;;38.20;25.83;;;10.30;78.00;;;;;;5053616;28;20501;-67
2022/03/26 00:39:05;;;;;;;37.13;25.30;;;10.30;78.60;;;;;;5054285;28;20457;-66
2022/03/26 00:41:32;;;;;;;36.87;25.97;;;10.30;79.00;;;;;;5053519;28;20422;-66
2022/03/26 00:43:58;;;;;;;33.77;24.53;;;10.20;79.40;;;;;;5054112;28;20743;-67
2022/03/26 00:46:24;;;;;;;35.47;25.80;;;10.20;79.60;;;;;;5053980;28;20414;-67
2022/03/26 00:48:51;;;;;;;37.17;25.47;;;10.30;79.70;;;;;;5053669;28;20760;-67
2022/03/26 00:51:17;;;;;;;31.47;24.50;;;10.20;79.90;;;;;;5053989;28;20492;-66
2022/03/26 00:53:44;;;;;;;38.90;23.83;;;10.10;79.60;;;;;;5053310;28;20419;-67
2022/03/26 00:56:11;;;;;;;40.90;25.97;;;10.10;80.00;;;;;;5052513;28;20924;-67
2022/03/26 00:58:37;;;;;;;34.00;24.80;;;10.10;80.80;;;;;;5053161;28;20491;-67
2022/03/26 01:01:02;;;;;;;36.47;25.30;;;10.00;80.60;;;;;;5053868;28;20576;-66
2022/03/26 01:03:28;;;;;;;39.20;26.93;;;10.00;80.40;;;;;;5053669;28;20657;-67
2022/03/26 01:05:54;;;;;;;41.03;24.97;;;9.90;82.00;;;;;;5053092;28;20616;-67
2022/03/26 01:08:19;;;;;;;42.80;28.07;;;9.80;83.10;;;;;;5053293;28;20256;-66
2022/03/26 01:10:46;;;;;;;35.17;24.80;;;9.80;83.60;;;;;;5053033;28;20205;-66
2022/03/26 01:13:13;;;;;;;35.70;24.97;;;10.00;82.40;;;;;;5053626;28;20190;-67
2022/03/26 01:15:39;;;;;;;36.53;24.77;;;9.90;83.40;;;;;;5053148;28;20425;-67
2022/03/26 01:18:06;;;;;;;39.77;26.00;;;9.80;83.10;;;;;;5053384;28;20412;-66
2022/03/26 01:20:32;;;;;;;38.23;26.77;;;9.80;83.70;;;;;;5052557;28;20457;-73
2022/03/26 01:22:58;;;;;;;38.07;27.50;;;9.80;84.20;;;;;;5053010;28;20961;-67
2022/03/26 01:25:24;;;;;;;38.97;26.30;;;9.70;84.50;;;;;;5053301;28;20446;-66
2022/03/26 01:27:51;;;;;;;45.17;26.63;;;9.70;84.80;;;;;;5052591;28;20769;-66
2022/03/26 01:30:17;;;;;;;37.00;26.27;;;9.70;84.70;;;;;;5052944;28;20578;-66
2022/03/26 01:32:44;;;;;;;37.60;26.50;;;9.60;84.70;;;;;;5052244;28;20417;-66
2022/03/26 01:35:11;;;;;;;41.83;28.67;;;9.60;85.30;;;;;;5053070;28;20409;-67
2022/03/26 01:37:37;;;;;;;39.83;25.97;;;9.60;86.10;;;;;;5052463;28;20444;-67
2022/03/26 01:40:05;;;;;;;37.23;25.93;;;9.50;85.70;;;;;;5053033;28;20851;-67
2022/03/26 01:42:31;;;;;;;39.20;26.33;;;9.50;85.70;;;;;;5051777;28;20513;-67
2022/03/26 01:44:57;;;;;;;43.37;28.23;;;9.50;86.00;;;;;;5052329;28;20409;-66
2022/03/26 01:47:23;;;;;;;39.53;27.00;;;9.50;86.00;;;;;;5052891;28;20885;-67
2022/03/26 01:49:50;;;;;;;40.77;26.43;;;9.40;86.10;;;;;;5052236;28;20206;-67
2022/03/26 01:52:17;;;;;;;36.30;24.73;;;9.50;86.20;;;;;;5052791;28;20759;-67
2022/03/26 01:54:43;;;;;;;35.93;25.73;;;9.40;86.50;;;;;;5051865;28;20888;-67
2022/03/26 01:57:13;;;;;;;34.17;24.53;;;9.40;86.20;;;;;;5052731;28;20408;-66
2022/03/26 01:59:40;;;;;;;40.50;25.87;;;9.30;86.50;;;;;;5052077;28;20767;-67
2022/03/26 02:02:06;;;;;;;33.10;24.97;;;9.30;86.70;;;;;;5052684;28;20526;-66
2022/03/26 02:04:34;;;;;;;38.03;26.57;;;9.20;87.00;;;;;;5052608;28;20417;-66
2022/03/26 02:07:02;;;;;;;40.50;27.20;;;9.10;87.90;;;;;;5052650;28;20415;-67
2022/03/26 02:09:33;;;;;;;37.53;25.40;;;9.10;88.70;;;;;;5052518;28;20495;-66
2022/03/26 02:11:59;;;;;;;36.97;25.40;;;9.10;89.40;;;;;;5052076;28;20547;-66
2022/03/26 02:14:25;;;;;;;42.90;27.00;;;9.10;89.30;;;;;;5052329;28;20756;-66
2022/03/26 02:16:51;;;;;;;35.17;26.13;;;9.10;89.60;;;;;;5051594;28;20415;-67
2022/03/26 02:19:16;;;;;;;41.17;25.40;;;9.10;89.90;;;;;;5052511;28;20420;-66
2022/03/26 02:21:43;;;;;;;44.80;27.20;;;9.10;90.10;;;;;;5051960;28;20220;-67
2022/03/26 02:24:09;;;;;;;40.70;25.57;;;9.10;89.80;;;;;;5052401;28;20200;-66
2022/03/26 02:26:35;;;;;;;37.50;26.53;;;9.10;89.50;;;;;;5052550;28;20869;-66
2022/03/26 02:29:09;;;;;;;40.60;27.47;;;9.10;89.80;;;;;;5052403;28;20169;-66
2022/03/26 02:31:37;;;;;;;40.20;26.10;;;9.10;90.00;;;;;;5052596;28;20552;-66
2022/03/26 02:34:05;;;;;;;39.60;28.07;;;9.00;90.20;;;;;;5052683;28;20774;-66
2022/03/26 02:36:31;;;;;;;44.50;29.13;;;8.60;89.90;;;;;;5052062;28;20416;-67
2022/03/26 02:38:57;;;;;;;38.70;26.17;;;9.00;90.00;;;;;;5051989;28;20404;-67
2022/03/26 02:41:22;;;;;;;44.63;27.50;;;9.00;90.00;;;;;;5052252;28;20424;-66
2022/03/26 02:43:48;;;;;;;44.43;26.60;;;9.10;89.90;;;;;;5051900;28;20257;-67
2022/03/26 02:46:14;;;;;;;38.53;26.10;;;9.10;90.00;;;;;;5055030;28;20273;-67
2022/03/26 02:48:39;;;;;;;43.20;28.40;;;9.00;89.60;;;;;;5055631;28;20178;-67
2022/03/26 02:51:06;;;;;;;42.10;28.10;;;9.00;89.10;;;;;;5055822;28;20663;-66
2022/03/26 02:53:32;;;;;;;40.70;26.67;;;9.10;89.70;;;;;;5056420;28;20171;-66
2022/03/26 02:55:58;;;;;;;43.50;26.57;;;8.90;89.20;;;;;;5055545;28;20447;-66
2022/03/26 02:58:23;;;;;;;38.33;26.87;;;8.90;89.70;;;;;;5056072;28;20408;-67
2022/03/26 03:00:49;;;;;;;42.23;26.50;;;8.90;90.00;;;;;;5054240;28;20215;-67
2022/03/26 03:03:15;;;;;;;37.77;25.10;;;8.80;90.00;;;;;;5056075;28;20184;-66
2022/03/26 03:05:41;;;;;;;43.33;25.27;;;8.80;89.80;;;;;;5054060;28;20178;-67
2022/03/26 03:08:06;;;;;;;44.67;26.80;;;8.80;90.10;;;;;;5055894;28;20177;-66
2022/03/26 03:10:32;;;;;;;37.90;25.53;;;8.70;90.30;;;;;;5055789;28;20563;-66
2022/03/26 03:12:59;;;;;;;39.23;27.30;;;8.70;90.40;;;;;;5054027;28;20415;-66
2022/03/26 03:15:25;;;;;;;41.60;25.93;;;8.30;90.20;;;;;;5055849;28;20188;-66
2022/03/26 03:17:52;;;;;;;38.87;26.43;;;8.60;90.40;;;;;;5054841;28;20412;-67
2022/03/26 03:20:19;;;;;;;44.87;25.93;;;8.60;90.50;;;;;;5055377;28;20460;-66
2022/03/26 03:22:44;;;;;;;38.83;26.00;;;8.30;90.70;;;;;;5055057;28;20465;-66
2022/03/26 03:25:10;;;;;;;39.93;26.87;;;8.60;91.20;;;;;;5055373;28;20510;-67
2022/03/26 03:27:38;;;;;;;40.33;27.77;;;8.60;90.90;;;;;;5055264;28;20178;-66
2022/03/26 03:30:05;;;;;;;42.00;26.63;;;8.60;90.70;;;;;;5055312;28;20472;-67
2022/03/26 03:32:31;;;;;;;46.77;28.33;;;8.60;90.90;;;;;;5055371;28;20432;-67
2022/03/26 03:34:56;;;;;;;38.87;26.63;;;8.50;91.20;;;;;;5054759;28;20935;-67
2022/03/26 03:37:26;;;;;;;41.37;29.07;;;8.50;91.30;;;;;;5054146;28;20223;-66
2022/03/26 03:39:51;;;;;;;36.47;26.07;;;8.50;91.20;;;;;;5054671;28;20184;-67
2022/03/26 03:42:17;;;;;;;40.53;26.60;;;8.40;90.90;;;;;;5055278;28;21012;-66
2022/03/26 03:44:43;;;;;;;37.20;27.30;;;8.50;91.00;;;;;;5054636;28;20408;-67
2022/03/26 03:47:08;;;;;;;38.70;26.93;;;8.50;91.10;;;;;;5054244;28;20205;-67
2022/03/26 03:49:35;;;;;;;34.03;25.17;;;8.40;90.90;;;;;;5055118;28;20224;-66
2022/03/26 03:52:02;;;;;;;38.93;26.30;;;8.40;91.00;;;;;;5054465;28;20181;-67
2022/03/26 03:54:27;;;;;;;35.53;23.47;;;8.50;90.90;;;;;;5054602;28;20432;-66
2022/03/26 03:56:53;;;;;;;40.83;26.60;;;7.90;90.70;;;;;;5054326;28;20420;-67
2022/03/26 03:59:19;;;;;;;39.07;26.70;;;8.30;91.20;;;;;;5054924;28;20409;-66
2022/03/26 04:01:45;;;;;;;41.20;27.87;;;8.30;91.40;;;;;;5054780;28;20169;-67
2022/03/26 04:04:11;;;;;;;39.63;26.53;;;8.20;91.40;;;;;;5053598;28;20428;-66
2022/03/26 04:06:37;;;;;;;35.73;24.63;;;8.20;91.50;;;;;;5054767;28;20303;-66
2022/03/26 04:09:03;;;;;;;40.60;27.03;;;8.20;91.40;;;;;;5054133;28;20234;-66
2022/03/26 04:11:29;;;;;;;37.47;25.63;;;8.20;91.50;;;;;;5053470;28;20471;-66
2022/03/26 04:13:54;;;;;;;35.33;24.70;;;8.20;91.60;;;;;;5054120;28;20177;-66
2022/03/26 04:16:20;;;;;;;39.13;24.80;;;8.10;91.80;;;;;;5054429;28;20189;-66
2022/03/26 04:18:46;;;;;;;34.27;24.47;;;8.10;91.30;;;;;;5054051;28;20168;-67
2022/03/26 04:21:13;;;;;;;38.03;25.87;;;8.10;91.50;;;;;;5054578;28;20521;-66
2022/03/26 04:23:39;;;;;;;36.60;26.47;;;8.10;91.50;;;;;;5054745;28;20420;-66
2022/03/26 04:26:06;;;;;;;36.60;23.87;;;8.00;91.70;;;;;;5053866;28;20477;-66
2022/03/26 04:28:32;;;;;;;35.03;24.00;;;8.00;91.70;;;;;;5052865;28;20968;-67
2022/03/26 04:30:57;;;;;;;39.33;25.87;;;8.00;91.90;;;;;;5053375;28;20483;-67
2022/03/26 04:33:23;;;;;;;40.37;27.90;;;7.90;91.90;;;;;;5054323;28;20220;-66
2022/03/26 04:35:49;;;;;;;42.00;26.40;;;7.90;92.00;;;;;;5053626;28;20186;-66
2022/03/26 04:38:15;;;;;;;34.47;22.57;;;7.90;92.10;;;;;;5053894;28;20178;-67
2022/03/26 04:40:40;;;;;;;38.50;25.13;;;7.90;92.20;;;;;;5054151;28;20174;-66
2022/03/26 04:43:06;;;;;;;39.10;24.60;;;7.90;92.00;;;;;;5053779;28;20417;-67
2022/03/26 04:45:32;;;;;;;37.13;24.40;;;7.90;92.20;;;;;;5054050;28;20222;-67
2022/03/26 04:47:58;;;;;;;36.27;24.07;;;7.80;92.30;;;;;;5053415;28;20188;-67
2022/03/26 04:50:24;;;;;;;37.70;24.07;;;7.80;92.30;;;;;;5053959;28;20212;-66
2022/03/26 04:52:50;;;;;;;38.20;23.97;;;7.80;92.20;;;;;;5053383;28;20423;-66
2022/03/26 04:55:18;;;;;;;37.27;24.30;;;7.90;92.20;;;;;;5053986;28;20375;-66
2022/03/26 04:57:47;;;;;;;36.83;24.33;;;7.80;92.40;;;;;;5053883;28;20234;-66
2022/03/26 05:00:15;;;;;;;35.97;23.40;;;7.80;92.60;;;;;;5053746;28;20424;-66
2022/03/26 05:02:41;;;;;;;38.83;25.13;;;7.80;92.70;;;;;;5053471;28;20415;-66
2022/03/26 05:05:08;;;;;;;36.90;24.37;;;7.80;92.60;;;;;;5053077;28;20419;-67
2022/03/26 05:07:48;;;;;;;37.10;24.07;;;7.70;92.60;;;;;;5053028;28;20415;-66
2022/03/26 05:10:17;;;;;;;39.07;24.33;;;7.70;92.40;;;;;;5053767;28;20454;-66
2022/03/26 05:12:45;;;;;;;32.80;23.17;;;7.70;92.40;;;;;;5053279;28;20898;-67
2022/03/26 05:15:11;;;;;;;37.80;24.07;;;7.70;92.50;;;;;;5053618;28;20910;-67
2022/03/26 05:17:38;;;;;;;34.33;24.27;;;7.70;92.70;;;;;;5053404;28;20439;-67
2022/03/26 05:20:05;;;;;;;35.33;23.00;;;7.70;92.50;;;;;;5052718;28;20464;-66
2022/03/26 05:22:31;;;;;;;36.80;25.70;;;7.60;92.50;;;;;;5052285;28;20935;-67
2022/03/26 05:24:57;;;;;;;41.33;24.70;;;7.70;92.50;;;;;;5052693;28;20411;-66
2022/03/26 05:27:23;;;;;;;34.10;24.97;;;7.60;92.90;;;;;;5053402;28;20771;-66
2022/03/26 05:29:49;;;;;;;37.90;26.00;;;7.50;93.30;;;;;;5052078;28;20458;-66
2022/03/26 05:32:17;;;;;;;37.17;23.67;;;7.60;93.40;;;;;;5053377;28;20193;-66
2022/03/26 05:34:44;;;;;;;35.70;24.67;;;7.60;93.40;;;;;;5053133;28;20423;-66
2022/03/26 05:37:10;;;;;;;36.57;25.23;;;7.50;93.20;;;;;;5052515;28;20818;-66
2022/03/26 05:39:37;;;;;;;41.57;24.23;;;7.50;93.10;;;;;;5053133;28;20745;-67
2022/03/26 05:42:02;;;;;;;34.80;23.60;;;7.50;93.20;;;;;;5051158;28;20435;-66
2022/03/26 05:44:28;;;;;;;36.40;23.37;;;7.50;93.20;;;;;;5052721;28;20415;-66
2022/03/26 05:46:54;;;;;;;32.63;22.87;;;7.50;93.10;;;;;;5051147;28;20463;-67
2022/03/26 05:49:21;;;;;;;37.90;23.60;;;7.50;93.40;;;;;;5052793;28;20418;-67
2022/03/26 05:51:47;;;;;;;40.50;24.30;;;7.50;93.60;;;;;;5052832;28;20527;-66
2022/03/26 05:54:14;;;;;;;32.07;21.93;;;7.60;93.70;;;;;;5052882;28;20423;-66
2022/03/26 05:56:40;;;;;;;34.83;23.30;;;7.50;93.90;;;;;;5053046;28;20773;-66
2022/03/26 05:59:10;;;;;;;36.30;23.67;;;7.50;94.00;;;;;;5051883;28;20741;-66
2022/03/26 06:01:36;;;;;;;33.40;23.03;;;7.60;94.00;;;;;;5052398;28;20458;-66
2022/03/26 06:04:02;;;;;;;38.77;25.53;;;7.60;94.20;;;;;;5052398;28;20817;-67
2022/03/26 06:06:28;;;;;;;36.17;23.47;;;7.70;94.30;;;;;;5052981;28;20409;-67
2022/03/26 06:08:54;;;;;;;39.77;23.17;;;7.70;94.30;;;;;;5051937;28;20416;-66
2022/03/26 06:11:20;;;;;;;40.10;25.73;;;7.80;94.30;;;;;;5052678;28;20227;-67
2022/03/26 06:13:46;;;;;;;39.97;26.23;;;7.70;94.40;;;;;;5052806;28;20408;-66
2022/03/26 06:16:11;;;;;;;39.43;26.00;;;7.70;94.40;;;;;;5051939;28;20184;-67
2022/03/26 06:18:38;;;;;;;39.23;26.40;;;7.90;94.50;;;;;;5052291;28;20416;-66
2022/03/26 06:21:06;;;;;;;42.10;26.13;;;7.90;94.40;;;;;;5051880;28;20309;-67
2022/03/26 06:23:32;;;;;;;40.90;26.47;;;8.00;94.50;;;;;;5052450;28;20469;-67
2022/03/26 06:25:58;;;;;;;38.43;26.33;;;8.00;94.40;;;;;;5050698;28;20452;-66
2022/03/26 06:28:24;;;;;;;42.23;27.00;;;8.00;94.50;;;;;;5052464;28;20181;-66
2022/03/26 06:30:51;;;;;;;38.83;26.90;;;8.00;94.60;;;;;;5052072;28;20479;-74
2022/03/26 06:33:17;;;;;;;38.67;26.20;;;8.10;94.90;;;;;;5052479;28;20744;-66
2022/03/26 06:35:47;;;;;;;38.80;26.03;;;8.10;94.50;;;;;;5052299;28;20444;-67
2022/03/26 06:38:13;;;;;;;39.80;24.73;;;8.40;94.20;;;;;;5051731;28;20426;-66
2022/03/26 06:40:40;;;;;;;43.67;27.93;;;8.20;93.80;;;;;;5052609;28;20451;-66
2022/03/26 06:43:07;;;;;;;44.90;26.90;;;8.20;93.90;;;;;;5051706;28;20416;-66
2022/03/26 06:45:33;;;;;;;39.70;26.17;;;8.30;93.90;;;;;;5052234;28;20412;-67
2022/03/26 06:47:59;;;;;;;38.40;25.20;;;8.30;93.60;;;;;;5051651;28;20433;-67
2022/03/26 06:50:25;;;;;;;39.30;23.73;;;8.30;93.60;;;;;;5052396;28;20498;-67
2022/03/26 06:52:51;;;;;;;36.60;23.17;;;8.40;93.60;;;;;;5052168;28;20630;-73
2022/03/26 06:55:17;;;;;;;39.50;25.30;;;8.50;93.40;;;;;;5052283;28;20412;-66
2022/03/26 06:57:42;;;;;;;41.47;25.80;;;8.60;93.30;;;;;;5052104;28;20422;-66
2022/03/26 07:00:10;;;;;;;36.07;23.70;;;8.70;93.00;;;;;;5051494;28;20174;-66
2022/03/26 07:02:36;;;;;;;39.47;26.13;;;8.80;92.90;;;;;;5052388;28;20178;-66
2022/03/26 07:05:05;;;;;;;35.97;25.27;;;8.90;93.00;;;;;;5051492;28;20412;-67
2022/03/26 07:07:31;;;;;;;35.90;24.90;;;9.00;92.80;;;;;;5052152;28;20174;-66
2022/03/26 07:09:58;;;;;;;40.03;26.20;;;9.00;92.60;;;;;;5051374;28;20470;-67
2022/03/26 07:12:24;;;;;;;37.90;25.50;;;9.10;92.90;;;;;;5052028;28;20549;-67
2022/03/26 07:14:49;;;;;;;33.83;23.20;;;9.20;92.50;;;;;;5052350;28;20408;-66
2022/03/26 07:17:16;;;;;;;40.00;25.77;;;9.40;92.20;;;;;;5051472;28;20454;-66
2022/03/26 07:19:42;;;;;;;38.63;25.20;;;9.30;92.00;;;;;;5052093;28;20196;-67
2022/03/26 07:22:08;;;;;;;36.73;25.47;;;9.40;91.70;;;;;;5051388;28;20409;-67
2022/03/26 07:24:34;;;;;;;36.00;25.87;;;9.50;91.30;;;;;;5051943;28;20434;-67
2022/03/26 07:27:00;;;;;;;37.23;25.33;;;9.50;91.00;;;;;;5050022;28;20474;-67
2022/03/26 07:29:25;;;;;;;37.87;24.70;;;9.60;90.90;;;;;;5051805;28;20698;-67
2022/03/26 07:31:51;;;;;;;36.13;23.20;;;9.60;90.70;;;;;;5054864;28;20471;-67
2022/03/26 07:34:17;;;;;;;36.10;24.27;;;9.70;90.70;;;;;;5054583;28;20182;-66
2022/03/26 07:36:44;;;;;;;39.47;25.47;;;9.70;91.60;;;;;;5055526;28;20175;-66
2022/03/26 07:39:09;;;;;;;39.77;26.10;;;9.80;92.50;;;;;;5054789;28;20441;-67
2022/03/26 07:41:35;;;;;;;35.17;23.90;;;9.90;92.10;;;;;;5055239;28;20447;-66
2022/03/26 07:44:01;;;;;;;35.67;24.83;;;10.00;91.20;;;;;;5053360;28;20174;-67
2022/03/26 07:46:27;;;;;;;35.10;25.00;;;10.00;91.30;;;;;;5055416;28;20487;-67
2022/03/26 07:48:52;;;;;;;41.70;27.20;;;10.20;91.20;;;;;;5055433;28;20183;-67
2022/03/26 07:51:18;;;;;;;38.17;25.00;;;10.30;90.90;;;;;;5053610;28;21012;-67
2022/03/26 07:53:49;;;;;;;38.03;25.67;;;10.40;90.40;;;;;;5054660;28;20420;-67
2022/03/26 07:56:14;;;;;;;34.60;25.43;;;10.50;90.20;;;;;;5054497;28;20423;-67
2022/03/26 07:58:40;;;;;;;36.40;25.83;;;10.50;90.50;;;;;;5054696;28;20415;-67
2022/03/26 08:01:06;;;;;;;40.43;24.87;;;10.60;90.20;;;;;;5054819;28;20505;-67
2022/03/26 08:03:33;;;;;;;38.60;25.57;;;10.70;89.50;;;;;;5054823;28;20548;-67
2022/03/26 08:05:59;;;;;;;39.33;25.83;;;10.80;89.00;;;;;;5054202;28;20419;-67
2022/03/26 08:08:25;;;;;;;36.17;25.47;;;10.90;90.20;;;;;;5054735;28;20408;-67
2022/03/26 08:10:51;;;;;;;44.30;26.33;;;11.00;89.50;;;;;;5056587;28;20703;-67
2022/03/26 08:13:17;;;;;;;36.00;24.93;;;11.10;89.50;;;;;;5052820;28;20419;-67
2022/03/26 08:15:43;;;;;;;37.17;26.93;;;11.20;89.50;;;;;;5054657;28;20412;-67
2022/03/26 08:18:09;;;;;;;35.80;25.20;;;11.20;89.70;;;;;;5053949;28;20458;-67
2022/03/26 08:20:34;;;;;;;36.97;25.07;;;11.30;89.70;;;;;;5054429;28;20585;-67
2022/03/26 08:23:01;;;;;;;38.83;27.40;;;11.40;87.00;;;;;;5053896;28;20237;-67
2022/03/26 08:28:12;;;;;;;46.63;27.77;;;11.60;86.70;;;;;;5053874;28;20172;-67
2022/03/26 08:30:38;;;;;;;39.30;27.87;;;11.80;86.50;;;;;;5054051;28;20469;-67
2022/03/26 08:33:04;;;;;;;41.20;28.03;;;11.90;86.20;;;;;;5054484;28;20432;-67
2022/03/26 08:35:39;;;;;;;43.57;28.60;;;12.00;86.20;;;;;;5054601;28;20896;-67
2022/03/26 08:38:05;;;;;;;41.80;29.60;;;12.20;87.90;;;;;;5053959;28;20784;-67
2022/03/26 08:40:31;;;;;;;42.40;29.60;;;12.20;86.70;;;;;;5054095;28;20958;-67
2022/03/26 08:43:00;;;;;;;45.63;29.67;;;12.30;85.90;;;;;;5053992;28;20480;-67
2022/03/26 08:45:26;;;;;;;44.50;30.33;;;12.50;85.30;;;;;;5053759;28;20422;-67
2022/03/26 08:47:52;;;;;;;43.87;30.77;;;12.60;85.60;;;;;;5053378;28;20463;-67
2022/03/26 08:50:18;;;;;;;48.67;31.20;;;12.80;86.20;;;;;;5052520;28;21089;-67
2022/03/26 08:52:47;;;;;;;43.90;30.10;;;12.90;86.50;;;;;;5053770;28;20498;-67
2022/03/26 08:55:14;;;;;;;49.20;30.83;;;13.00;86.20;;;;;;5052160;28;20251;-67
2022/03/26 08:57:40;;;;;;;42.93;32.23;;;13.20;84.90;;;;;;5054042;28;20965;-67
2022/03/26 09:00:07;;;;;;;44.53;32.17;;;13.30;83.50;;;;;;5053027;28;20433;-67
2022/03/26 09:02:32;;;;;;;48.13;34.77;;;13.40;83.70;;;;;;5053729;28;20404;-67
2022/03/26 09:04:58;;;;;;;43.80;31.77;;;13.70;83.60;;;;;;5053748;28;20418;-67
2022/03/26 09:07:24;;;;;;;42.67;29.70;;;13.70;85.00;;;;;;5053380;28;20173;-67
2022/03/26 09:09:50;;;;;;;41.23;30.33;;;13.80;83.50;;;;;;5053183;28;20238;-67
2022/03/26 09:12:15;;;;;;;40.10;29.30;;;13.90;82.10;;;;;;5052940;28;20178;-67
2022/03/26 09:14:41;;;;;;;39.20;26.47;;;14.10;82.00;;;;;;5053775;28;20271;-67
2022/03/26 09:17:07;;;;;;;37.80;26.73;;;14.20;82.30;;;;;;5052601;28;20185;-67
2022/03/26 09:19:32;;;;;;;37.00;25.00;;;14.30;77.80;;;;;;5053388;28;20518;-67
2022/03/26 09:21:58;;;;;;;39.70;27.43;;;14.30;78.50;;;;;;5052221;28;20254;-67
2022/03/26 09:24:24;;;;;;;36.10;27.67;;;14.50;81.20;;;;;;5052486;28;20185;-67
2022/03/26 09:26:49;;;;;;;40.13;26.50;;;14.70;82.30;;;;;;5051817;28;20180;-67
2022/03/26 09:29:16;;;;;;;37.07;27.13;;;14.80;81.30;;;;;;5052648;28;20187;-67
2022/03/26 09:31:43;;;;;;;38.80;26.83;;;15.00;79.00;;;;;;5053471;28;20202;-67
2022/03/26 09:34:09;;;;;;;40.00;28.00;;;15.20;82.00;;;;;;5051423;28;20481;-67
2022/03/26 09:36:34;;;;;;;35.20;25.17;;;15.60;80.40;;;;;;5053050;28;20409;-67
2022/03/26 09:39:01;;;;;;;37.20;26.10;;;15.90;78.60;;;;;;5053080;28;20477;-67
2022/03/26 09:41:28;;;;;;;34.43;26.17;;;16.20;77.70;;;;;;5053035;28;20181;-67
2022/03/26 09:43:55;;;;;;;38.30;26.20;;;16.60;75.00;;;;;;5053045;28;20439;-67
2022/03/26 09:46:20;;;;;;;31.20;24.03;;;16.90;73.70;;;;;;5052079;28;20411;-67
2022/03/26 09:48:47;;;;;;;32.33;25.30;;;17.30;73.70;;;;;;5052926;28;20817;-67
2022/03/26 09:51:20;;;;;;;33.17;25.53;;;17.70;70.30;;;;;;5052175;28;20205;-67
2022/03/26 09:53:52;;;;;;;37.87;26.67;;;17.90;67.60;;;;;;5052107;28;20405;-67
2022/03/26 09:56:19;;;;;;;34.03;26.17;;;18.20;72.50;;;;;;5052259;28;20461;-67
2022/03/26 09:58:45;;;;;;;33.57;27.40;;;18.70;72.50;;;;;;5052779;28;20417;-67
2022/03/26 10:01:11;;;;;;;33.60;26.87;;;19.00;69.50;;;;;;5051881;28;20424;-67
2022/03/26 10:03:41;;;;;;;34.60;27.20;;;19.30;64.50;;;;;;5052448;28;20505;-67
2022/03/26 10:06:07;;;;;;;30.83;25.50;;;19.70;64.10;;;;;;5052426;28;20420;-68
2022/03/26 10:08:37;;;;;;;34.13;26.77;;;19.90;62.00;;;;;;5052864;28;20482;-67
2022/03/26 10:11:04;;;;;;;35.93;26.23;;;19.80;59.60;;;;;;5051960;28;20471;-75
2022/03/26 10:13:36;;;;;;;31.97;23.93;;;19.80;61.60;;;;;;5052508;28;20430;-67
2022/03/26 10:16:02;;;;;;;20.07;17.97;;;20.00;60.40;;;;;;5052555;28;20419;-67
2022/03/26 10:18:36;;;;;;;22.83;18.83;;;20.10;59.30;;;;;;5052237;28;20754;-67
2022/03/26 10:21:04;;;;;;;18.20;15.93;;;20.30;58.70;;;;;;5052510;28;20456;-68
2022/03/26 10:23:30;;;;;;;24.83;18.10;;;20.40;59.20;;;;;;5052140;28;20428;-67
2022/03/26 10:26:09;;;;;;;16.80;13.70;;;20.60;60.20;;;;;;5052593;28;20404;-67
2022/03/26 10:28:35;;;;;;;17.10;14.47;;;20.60;54.10;;;;;;5051216;28;20181;-67
2022/03/26 10:34:07;;;;;;;18.67;16.63;;;21.10;56.50;;;;;;5052461;28;20178;-67
2022/03/26 10:36:37;;;;;;;18.97;15.07;;;21.20;57.30;;;;;;5052455;28;20400;-68
2022/03/26 10:39:05;;;;;;;18.23;16.23;;;21.40;56.50;;;;;;5052397;28;20416;-68
2022/03/26 10:41:33;;;;;;;20.17;17.77;;;21.60;57.00;;;;;;5051269;28;20436;-67
2022/03/26 10:44:13;;;;;;;22.87;16.67;;;21.80;55.70;;;;;;5051970;28;20401;-67
2022/03/26 10:46:53;;;;;;;20.50;18.40;;;22.00;56.00;;;;;;5052280;28;20438;-67
2022/03/26 10:49:33;;;;;;;26.27;19.37;;;22.00;55.10;;;;;;5051740;28;20400;-67
2022/03/26 10:52:20;;;;;;;20.77;18.60;;;22.20;55.80;;;;;;5052220;28;20939;-67
2022/03/26 10:54:47;;;;;;;17.07;15.30;;;22.40;55.20;;;;;;5052345;28;20404;-67
2022/03/26 10:57:13;;;;;;;15.93;14.23;;;22.60;55.70;;;;;;5051605;28;20408;-67
2022/03/26 10:59:39;;;;;;;14.97;13.27;;;22.80;53.80;;;;;;5051929;28;20884;-67
2022/03/26 11:02:05;;;;;;;13.50;12.07;;;22.90;53.90;;;;;;5052378;28;20432;-67
2022/03/26 11:04:31;;;;;;;14.83;13.33;;;23.00;54.00;;;;;;5052075;28;20439;-68
2022/03/26 11:06:58;;;;;;;14.30;12.90;;;23.00;54.10;;;;;;5055731;28;20424;-67
2022/03/26 11:09:25;;;;;;;17.60;14.33;;;23.00;52.00;;;;;;5055325;28;20813;-67
2022/03/26 11:11:52;;;;;;;16.80;14.03;;;23.00;52.00;;;;;;5055912;28;20462;-67
2022/03/26 11:14:31;;;;;;;15.20;13.80;;;22.90;54.60;;;;;;5055270;28;20494;-67
2022/03/26 11:17:08;;;;;;;14.17;12.67;;;22.70;52.10;;;;;;5055808;28;20400;-67
2022/03/26 11:19:55;;;;;;;12.97;11.63;;;22.70;52.10;;;;;;5055507;28;20938;-68
2022/03/26 11:22:41;;;;;;;12.20;11.10;;;22.70;54.60;;;;;;5054743;28;20458;-68
2022/03/26 11:25:35;;;;;;;12.47;11.37;;;22.80;52.70;;;;;;5055748;28;20495;-73
2022/03/26 11:28:34;;;;;;;14.10;12.70;;;22.10;53.20;;;;;;5055750;28;20418;-67
2022/03/26 11:31:17;;;;;;;35.17;14.43;;;22.20;54.20;;;;;;5055040;28;20468;-67
2022/03/26 11:33:48;;;;;;;13.33;12.10;;;22.40;52.80;;;;;;5055587;28;20408;-67
2022/03/26 11:36:17;;;;;;;13.87;11.67;;;22.30;54.40;;;;;;5054862;28;20489;-68
2022/03/26 11:38:56;;;;;;;11.87;10.77;;;22.40;52.70;;;;;;5054095;28;20834;-68
2022/03/26 11:41:32;;;;;;;12.43;11.30;;;22.50;52.60;;;;;;5054737;28;20412;-68
2022/03/26 11:43:58;;;;;;;12.80;11.60;;;22.50;52.30;;;;;;5055273;28;20822;-67
2022/03/26 11:52:27;;;;;;;11.20;10.03;;;22.50;54.40;;;;;;5054618;28;20759;-68
2022/03/26 11:55:14;;;;;;;12.57;11.30;;;22.50;51.90;;;;;;5055072;28;20416;-67
2022/03/26 11:57:40;;;;;;;12.90;11.70;;;22.40;51.50;;;;;;5054690;28;20431;-67
2022/03/26 12:00:17;;;;;;;12.97;11.63;;;22.10;50.40;;;;;;5054818;28;20807;-67
2022/03/26 12:02:52;;;;;;;12.80;11.60;;;21.90;51.20;;;;;;5054951;28;20166;-67
2022/03/26 12:08:15;;;;;;;12.77;11.30;;;21.50;53.30;;;;;;5054820;28;20426;-67
2022/03/26 12:10:41;;;;;;;11.53;10.53;;;21.20;52.50;;;;;;5054842;28;20483;-67
2022/03/26 12:13:08;;;;;;;12.70;11.40;;;21.50;53.80;;;;;;5054325;28;20529;-67
2022/03/26 12:15:35;;;;;;;12.80;11.60;;;21.70;53.00;;;;;;5052451;28;20454;-67
2022/03/26 12:18:09;;;;;;;12.07;10.97;;;21.80;52.00;;;;;;5054652;28;20404;-67
2022/03/26 12:20:42;;;;;;;11.80;10.70;;;22.00;52.00;;;;;;5054041;28;20482;-67
2022/03/26 12:23:27;;;;;;;11.63;10.00;;;22.10;51.50;;;;;;5054611;28;20781;-67
2022/03/26 12:26:01;;;;;;;11.03;9.93;;;22.20;52.70;;;;;;5054207;28;20408;-68
2022/03/26 12:28:29;;;;;;;10.20;9.20;;;22.20;52.90;;;;;;5052759;28;20405;-67
2022/03/26 12:30:58;;;;;;;9.80;9.10;;;22.20;51.70;;;;;;5053942;28;20817;-67
2022/03/26 12:33:25;;;;;;;9.87;9.07;;;22.10;54.10;;;;;;5053990;28;20451;-68
2022/03/26 12:35:54;;;;;;;11.43;10.33;;;22.30;53.00;;;;;;5054345;28;20420;-67
2022/03/26 12:38:21;;;;;;;11.57;10.50;;;22.00;52.60;;;;;;5053670;28;20408;-68
2022/03/26 12:41:14;;;;;;;12.60;11.40;;;21.60;52.70;;;;;;5054352;28;20426;-68
2022/03/26 12:43:40;;;;;;;11.73;10.00;;;21.60;53.40;;;;;;5052780;28;20432;-67
2022/03/26 12:46:10;;;;;;;11.93;10.83;;;21.70;54.50;;;;;;5054081;28;20817;-67
2022/03/26 12:48:36;;;;;;;12.90;11.77;;;21.80;54.00;;;;;;5053446;28;20178;-68